Wildcat, West Virginia
Current Conditions -  °F | °C
As of 8:35 PM on Thursday 27 Nov 2014 (Local Time) from KW22 Reporting Station
Light Snow Light Snow  
Wind Chill: 16°   Ceiling: 100
Heat Index: 27°   Visibility: 2.5mi
Dew Point: 27°   Wind: 12mph
Humidity: 100%   Direction: 280°W
Pressure: 30.22"   Gusts: 17mph
Location:  38.7502°N, 80.4805°W
Report Text: KW22 280135Z AUTO 28010G15KT 2 1/2SM -SN BKN001 OVC009 M03/M03 A3022 RMK AO2
Loading
Personal Weather Stations






























Interactive Weather Map New forecast layout! Learn more

10-Day Weather Forecast

Advertisements
Track Severe Weather on mobile